AAR321 RKSI-ZGHA
Flight info
| Callsign | AAR321 |
|---|---|
| Flight time | 2h 44m |
| Altitude | 30000 |
| Route | NOPIK2Y NOPIK Y697 AGAVO/K0756S0660 A591 IKEKA W4 FZ/K0867S1040 W4 IPNIT W37 GUSIV GUS1W |
| Aircraft | A321/M-SDE3FGHIRWY/LB1 |
Departure
| Time | 2026-05-01 11:19 |
|---|---|
| Airport | Incheon International Airport (RKSI) |
Arrival
| Time | 2026-05-01 14:03 |
|---|---|
| Airport | Changsha Huanghua International Airport (ZGHA) |
| Time | Latitude | Longitude | Altitude | Speed | Heading |
|---|---|---|---|---|---|
| 2026-05-01 10:44 | 37.46151 | 126.43407 | 6 ft | 0 kts | 349° |
| 2026-05-01 11:03 | 37.46145 | 126.43409 | 32 ft | 2 kts | 349° |
| 2026-05-01 11:03 | 37.46126 | 126.43414 | 32 ft | 3 kts | 345° |
| 2026-05-01 11:03 | 37.46106 | 126.43421 | 32 ft | 3 kts | 339° |
| 2026-05-01 11:03 | 37.46088 | 126.43431 | 33 ft | 3 kts | 326° |
| 2026-05-01 11:04 | 37.46074 | 126.43445 | 32 ft | 3 kts | 294° |
| 2026-05-01 11:04 | 37.46070 | 126.43458 | 33 ft | 2 kts | 239° |
| 2026-05-01 11:04 | 37.46071 | 126.43461 | 33 ft | 0 kts | 234° |
| 2026-05-01 11:07 | 37.46069 | 126.43458 | 33 ft | 3 kts | 234° |
| 2026-05-01 11:07 | 37.46025 | 126.43379 | 33 ft | 14 kts | 234° |
| 2026-05-01 11:07 | 37.45978 | 126.43296 | 33 ft | 9 kts | 234° |
| 2026-05-01 11:07 | 37.45938 | 126.43227 | 33 ft | 9 kts | 226° |
| 2026-05-01 11:08 | 37.45890 | 126.43221 | 33 ft | 8 kts | 158° |
| 2026-05-01 11:08 | 37.45820 | 126.43277 | 32 ft | 16 kts | 144° |
| 2026-05-01 11:08 | 37.45616 | 126.43459 | 32 ft | 15 kts | 144° |
| 2026-05-01 11:09 | 37.45539 | 126.43528 | 33 ft | 15 kts | 144° |
| 2026-05-01 11:09 | 37.45411 | 126.43640 | 33 ft | 26 kts | 145° |
| 2026-05-01 11:09 | 37.45271 | 126.43764 | 32 ft | 22 kts | 144° |
| 2026-05-01 11:10 | 37.45061 | 126.43953 | 33 ft | 17 kts | 144° |
| 2026-05-01 11:10 | 37.44947 | 126.44055 | 30 ft | 20 kts | 144° |
| 2026-05-01 11:10 | 37.44843 | 126.44148 | 33 ft | 16 kts | 144° |
| 2026-05-01 11:10 | 37.44761 | 126.44220 | 33 ft | 12 kts | 144° |
| 2026-05-01 11:11 | 37.44704 | 126.44271 | 33 ft | 8 kts | 145° |
| 2026-05-01 11:11 | 37.44643 | 126.44325 | 31 ft | 17 kts | 144° |
| 2026-05-01 11:11 | 37.44558 | 126.44402 | 31 ft | 12 kts | 143° |
| 2026-05-01 11:11 | 37.44485 | 126.44402 | 33 ft | 9 kts | 222° |
| 2026-05-01 11:12 | 37.44478 | 126.44390 | 33 ft | 0 kts | 232° |
| 2026-05-01 11:13 | 37.44468 | 126.44375 | 33 ft | 8 kts | 233° |
| 2026-05-01 11:13 | 37.44434 | 126.44314 | 33 ft | 9 kts | 234° |
| 2026-05-01 11:14 | 37.44417 | 126.44285 | 33 ft | 0 kts | 235° |
| 2026-05-01 11:16 | 37.44397 | 126.44249 | 33 ft | 10 kts | 235° |
| 2026-05-01 11:17 | 37.44370 | 126.44172 | 33 ft | 10 kts | 269° |
| 2026-05-01 11:17 | 37.44406 | 126.44119 | 33 ft | 0 kts | 323° |
| 2026-05-01 11:18 | 37.44443 | 126.44085 | 33 ft | 24 kts | 324° |
| 2026-05-01 11:18 | 37.44775 | 126.43788 | 33 ft | 91 kts | 324° |
| 2026-05-01 11:18 | 37.45414 | 126.43216 | 33 ft | 143 kts | 324° |
| 2026-05-01 11:18 | 37.46370 | 126.42370 | 121 ft | 177 kts | 319° |
| 2026-05-01 11:19 | 37.47369 | 126.41450 | 666 ft | 178 kts | 313° |
| 2026-05-01 11:19 | 37.48198 | 126.40293 | 1269 ft | 178 kts | 307° |
| 2026-05-01 11:19 | 37.48989 | 126.39081 | 1813 ft | 183 kts | 307° |
| 2026-05-01 11:19 | 37.49818 | 126.37777 | 1993 ft | 199 kts | 307° |
| 2026-05-01 11:20 | 37.50413 | 126.36140 | 2103 ft | 220 kts | 277° |
| 2026-05-01 11:20 | 37.50476 | 126.34144 | 2373 ft | 238 kts | 273° |
| 2026-05-01 11:20 | 37.50520 | 126.32009 | 2844 ft | 249 kts | 272° |
| 2026-05-01 11:20 | 37.50565 | 126.29808 | 3512 ft | 254 kts | 272° |
| 2026-05-01 11:21 | 37.50611 | 126.27569 | 4179 ft | 258 kts | 272° |
| 2026-05-01 11:21 | 37.50657 | 126.25288 | 4830 ft | 263 kts | 272° |
| 2026-05-01 11:21 | 37.50705 | 126.22965 | 5467 ft | 267 kts | 272° |
| 2026-05-01 11:21 | 37.50755 | 126.20610 | 6129 ft | 271 kts | 271° |
| 2026-05-01 11:22 | 37.50499 | 126.18249 | 6745 ft | 275 kts | 257° |
| 2026-05-01 11:22 | 37.50060 | 126.15899 | 7408 ft | 277 kts | 257° |
| 2026-05-01 11:22 | 37.49614 | 126.13528 | 8081 ft | 279 kts | 256° |
| 2026-05-01 11:22 | 37.49165 | 126.11139 | 8747 ft | 281 kts | 256° |
| 2026-05-01 11:23 | 37.48714 | 126.08736 | 9437 ft | 283 kts | 256° |
| 2026-05-01 11:23 | 37.48255 | 126.06314 | 10066 ft | 286 kts | 256° |
| 2026-05-01 11:23 | 37.47779 | 126.03823 | 10335 ft | 303 kts | 256° |
| 2026-05-01 11:23 | 37.47267 | 126.01155 | 10464 ft | 323 kts | 256° |
| 2026-05-01 11:24 | 37.46723 | 125.98327 | 10597 ft | 342 kts | 256° |
| 2026-05-01 11:24 | 37.46151 | 125.95336 | 10714 ft | 360 kts | 256° |
| 2026-05-01 11:24 | 37.44937 | 125.88982 | 11358 ft | 381 kts | 257° |
| 2026-05-01 11:25 | 37.44311 | 125.85727 | 11916 ft | 384 kts | 257° |
| 2026-05-01 11:25 | 37.43038 | 125.79133 | 13071 ft | 391 kts | 257° |
| 2026-05-01 11:25 | 37.42394 | 125.75802 | 13637 ft | 394 kts | 257° |
| 2026-05-01 11:26 | 37.41742 | 125.72433 | 14169 ft | 397 kts | 257° |
| 2026-05-01 11:26 | 37.40490 | 125.65632 | 15250 ft | 402 kts | 261° |
| 2026-05-01 11:26 | 37.40290 | 125.62121 | 15763 ft | 404 kts | 269° |
| 2026-05-01 11:27 | 37.40248 | 125.58574 | 16276 ft | 407 kts | 269° |
| 2026-05-01 11:27 | 37.40202 | 125.54998 | 16761 ft | 410 kts | 268° |
| 2026-05-01 11:27 | 37.40150 | 125.51403 | 17234 ft | 413 kts | 268° |
| 2026-05-01 11:27 | 37.40097 | 125.47775 | 17689 ft | 416 kts | 268° |
| 2026-05-01 11:28 | 37.40040 | 125.44127 | 18150 ft | 419 kts | 268° |
| 2026-05-01 11:28 | 37.39980 | 125.40456 | 18553 ft | 421 kts | 268° |
| 2026-05-01 11:28 | 37.39918 | 125.36771 | 18954 ft | 423 kts | 268° |
| 2026-05-01 11:29 | 37.39801 | 125.29334 | 19761 ft | 427 kts | 268° |
| 2026-05-01 11:29 | 37.39740 | 125.25598 | 20164 ft | 429 kts | 268° |
| 2026-05-01 11:29 | 37.39612 | 125.18071 | 20944 ft | 432 kts | 268° |
| 2026-05-01 11:30 | 37.39550 | 125.14287 | 21338 ft | 434 kts | 268° |
| 2026-05-01 11:30 | 37.39484 | 125.10481 | 21729 ft | 436 kts | 268° |
| 2026-05-01 11:30 | 37.39437 | 125.07910 | 21981 ft | 437 kts | 268° |
| 2026-05-01 11:31 | 37.39269 | 124.98778 | 22870 ft | 441 kts | 268° |
| 2026-05-01 11:31 | 37.39195 | 124.94912 | 23233 ft | 443 kts | 268° |
| 2026-05-01 11:31 | 37.39119 | 124.91034 | 23562 ft | 445 kts | 268° |
| 2026-05-01 11:31 | 37.39042 | 124.87149 | 23849 ft | 446 kts | 268° |
| 2026-05-01 11:32 | 37.38965 | 124.83242 | 24167 ft | 447 kts | 268° |
| 2026-05-01 11:32 | 37.38887 | 124.79326 | 24489 ft | 448 kts | 268° |
| 2026-05-01 11:32 | 37.38806 | 124.75406 | 24806 ft | 449 kts | 268° |
| 2026-05-01 11:33 | 37.38560 | 124.63747 | 25949 ft | 446 kts | 268° |
| 2026-05-01 11:33 | 37.38475 | 124.59855 | 26392 ft | 444 kts | 268° |
| 2026-05-01 11:33 | 37.38389 | 124.55989 | 26823 ft | 441 kts | 268° |
| 2026-05-01 11:34 | 37.38302 | 124.52148 | 27272 ft | 439 kts | 268° |
| 2026-05-01 11:34 | 37.38216 | 124.48327 | 27706 ft | 437 kts | 268° |
| 2026-05-01 11:34 | 37.37934 | 124.44536 | 28129 ft | 435 kts | 259° |
| 2026-05-01 11:34 | 37.37145 | 124.40881 | 28526 ft | 433 kts | 250° |
| 2026-05-01 11:35 | 37.35865 | 124.37454 | 28930 ft | 433 kts | 241° |
| 2026-05-01 11:35 | 37.34264 | 124.34253 | 29348 ft | 432 kts | 239° |
| 2026-05-01 11:35 | 37.33174 | 124.32095 | 29629 ft | 431 kts | 240° |
| 2026-05-01 11:35 | 37.31576 | 124.28919 | 29972 ft | 430 kts | 240° |
| 2026-05-01 11:36 | 37.29473 | 124.24721 | 30054 ft | 429 kts | 240° |
| 2026-05-01 11:36 | 37.26819 | 124.19410 | 30049 ft | 428 kts | 240° |
| 2026-05-01 11:37 | 37.23641 | 124.13091 | 30052 ft | 428 kts | 240° |
| 2026-05-01 11:37 | 37.20382 | 124.06833 | 30056 ft | 428 kts | 239° |
| 2026-05-01 11:38 | 37.17035 | 124.00648 | 30062 ft | 428 kts | 239° |
| 2026-05-01 11:38 | 37.13735 | 123.94432 | 30057 ft | 428 kts | 240° |
| 2026-05-01 11:39 | 37.10534 | 123.88156 | 30051 ft | 427 kts | 241° |
| 2026-05-01 11:39 | 37.07329 | 123.81880 | 30046 ft | 427 kts | 241° |
| 2026-05-01 11:40 | 37.04103 | 123.75630 | 30039 ft | 428 kts | 241° |
| 2026-05-01 11:40 | 37.00856 | 123.69393 | 30040 ft | 428 kts | 241° |
| 2026-05-01 11:40 | 36.99242 | 123.66301 | 29779 ft | 421 kts | 244° |
| 2026-05-01 11:41 | 36.97648 | 123.63250 | 29982 ft | 418 kts | 244° |
| 2026-05-01 11:41 | 36.94489 | 123.57182 | 30063 ft | 415 kts | 244° |
| 2026-05-01 11:42 | 36.91350 | 123.51134 | 30059 ft | 414 kts | 244° |
| 2026-05-01 11:42 | 36.88206 | 123.45096 | 30063 ft | 414 kts | 244° |
| 2026-05-01 11:43 | 36.85393 | 123.38906 | 30064 ft | 403 kts | 256° |
| 2026-05-01 11:43 | 36.84482 | 123.32158 | 30056 ft | 391 kts | 274° |
| 2026-05-01 11:44 | 36.85534 | 123.25554 | 30057 ft | 389 kts | 287° |
| 2026-05-01 11:44 | 36.86327 | 123.22320 | 30053 ft | 389 kts | 287° |
| 2026-05-01 11:44 | 36.88169 | 123.15973 | 30058 ft | 389 kts | 291° |
| 2026-05-01 11:45 | 36.90241 | 123.09719 | 30049 ft | 390 kts | 291° |
| 2026-05-01 11:45 | 36.92333 | 123.03461 | 30131 ft | 392 kts | 291° |
| 2026-05-01 11:46 | 36.93372 | 123.00307 | 30367 ft | 393 kts | 291° |
| 2026-05-01 11:46 | 36.94407 | 122.97138 | 30634 ft | 392 kts | 291° |
| 2026-05-01 11:46 | 36.95432 | 122.93986 | 30918 ft | 392 kts | 291° |
| 2026-05-01 11:46 | 36.96454 | 122.90831 | 31198 ft | 391 kts | 291° |
| 2026-05-01 11:47 | 36.97472 | 122.87688 | 31476 ft | 390 kts | 291° |
| 2026-05-01 11:47 | 36.98492 | 122.84549 | 31757 ft | 389 kts | 291° |
| 2026-05-01 11:47 | 36.99509 | 122.81415 | 32002 ft | 389 kts | 291° |
| 2026-05-01 11:47 | 37.00526 | 122.78288 | 32064 ft | 388 kts | 291° |
| 2026-05-01 11:48 | 37.02553 | 122.72042 | 32069 ft | 388 kts | 291° |
| 2026-05-01 11:48 | 37.04576 | 122.65778 | 32065 ft | 388 kts | 291° |
| 2026-05-01 11:49 | 37.06593 | 122.59515 | 32064 ft | 388 kts | 291° |
| 2026-05-01 11:49 | 37.08604 | 122.53237 | 32065 ft | 388 kts | 290° |
| 2026-05-01 11:50 | 37.10615 | 122.46960 | 32064 ft | 388 kts | 290° |
| 2026-05-01 11:50 | 37.12636 | 122.40676 | 32060 ft | 389 kts | 290° |
| 2026-05-01 11:51 | 37.14650 | 122.34391 | 32060 ft | 389 kts | 290° |
| 2026-05-01 11:51 | 37.16656 | 122.28094 | 32046 ft | 389 kts | 290° |
| 2026-05-01 11:52 | 37.18657 | 122.21778 | 32052 ft | 389 kts | 289° |
| 2026-05-01 11:52 | 37.20411 | 122.15359 | 32060 ft | 389 kts | 287° |
| 2026-05-01 11:53 | 37.22023 | 122.08874 | 32043 ft | 390 kts | 287° |
| 2026-05-01 11:53 | 37.23651 | 122.02385 | 32053 ft | 390 kts | 287° |
| 2026-05-01 11:54 | 37.25314 | 121.95911 | 32056 ft | 390 kts | 287° |
| 2026-05-01 11:54 | 37.26993 | 121.89428 | 32053 ft | 390 kts | 287° |
| 2026-05-01 11:55 | 37.28668 | 121.82951 | 32055 ft | 390 kts | 287° |
| 2026-05-01 11:55 | 37.30334 | 121.76463 | 32050 ft | 391 kts | 287° |
| 2026-05-01 11:56 | 37.31993 | 121.69968 | 32038 ft | 391 kts | 287° |
| 2026-05-01 11:56 | 37.33654 | 121.63467 | 32046 ft | 391 kts | 287° |
| 2026-05-01 11:57 | 37.35307 | 121.56953 | 32038 ft | 391 kts | 287° |
| 2026-05-01 11:57 | 37.36960 | 121.50437 | 32050 ft | 391 kts | 287° |
| 2026-05-01 11:58 | 37.38609 | 121.43923 | 32049 ft | 391 kts | 287° |
| 2026-05-01 11:59 | 37.41078 | 121.34129 | 32041 ft | 392 kts | 287° |
| 2026-05-01 11:59 | 37.42724 | 121.27589 | 32050 ft | 392 kts | 287° |
| 2026-05-01 12:00 | 37.45192 | 121.17771 | 32042 ft | 393 kts | 288° |
| 2026-05-01 12:01 | 37.48153 | 121.08135 | 32042 ft | 394 kts | 291° |
| 2026-05-01 12:01 | 37.50273 | 121.01777 | 32042 ft | 394 kts | 291° |
| 2026-05-01 12:02 | 37.52343 | 120.95381 | 32038 ft | 394 kts | 290° |
| 2026-05-01 12:02 | 37.54372 | 120.88969 | 32037 ft | 394 kts | 290° |
| 2026-05-01 12:03 | 37.56393 | 120.82540 | 32037 ft | 395 kts | 290° |
| 2026-05-01 12:03 | 37.58418 | 120.76104 | 32030 ft | 395 kts | 290° |
| 2026-05-01 12:04 | 37.60482 | 120.69696 | 32024 ft | 395 kts | 291° |
| 2026-05-01 12:04 | 37.62600 | 120.63294 | 32028 ft | 395 kts | 291° |
| 2026-05-01 12:05 | 37.64639 | 120.56866 | 32030 ft | 394 kts | 285° |
| 2026-05-01 12:05 | 37.65192 | 120.50013 | 32028 ft | 396 kts | 267° |
| 2026-05-01 12:05 | 37.64943 | 120.46553 | 32020 ft | 396 kts | 267° |
| 2026-05-01 12:06 | 37.64458 | 120.39620 | 32021 ft | 397 kts | 267° |
| 2026-05-01 12:06 | 37.63973 | 120.32672 | 32020 ft | 397 kts | 267° |
| 2026-05-01 12:07 | 37.63487 | 120.25734 | 32020 ft | 398 kts | 267° |
| 2026-05-01 12:07 | 37.62987 | 120.18774 | 32016 ft | 398 kts | 267° |
| 2026-05-01 12:08 | 37.62479 | 120.11817 | 32012 ft | 399 kts | 267° |
| 2026-05-01 12:08 | 37.61980 | 120.04846 | 32009 ft | 399 kts | 267° |
| 2026-05-01 12:09 | 37.61479 | 119.97874 | 32007 ft | 399 kts | 267° |
| 2026-05-01 12:09 | 37.60964 | 119.90898 | 32011 ft | 400 kts | 266° |
| 2026-05-01 12:10 | 37.60180 | 119.80419 | 32013 ft | 400 kts | 266° |
| 2026-05-01 12:11 | 37.59382 | 119.69918 | 32014 ft | 401 kts | 266° |
| 2026-05-01 12:11 | 37.58858 | 119.62922 | 32017 ft | 401 kts | 266° |
| 2026-05-01 12:12 | 37.58394 | 119.55910 | 32015 ft | 401 kts | 267° |
| 2026-05-01 12:12 | 37.57942 | 119.48893 | 32016 ft | 402 kts | 266° |
| 2026-05-01 12:13 | 37.57460 | 119.41871 | 32016 ft | 402 kts | 266° |
| 2026-05-01 12:13 | 37.57042 | 119.35981 | 32019 ft | 403 kts | 266° |
| 2026-05-01 12:14 | 37.56534 | 119.28949 | 32015 ft | 403 kts | 266° |
| 2026-05-01 12:14 | 37.56025 | 119.21914 | 32017 ft | 403 kts | 266° |
| 2026-05-01 12:15 | 37.55518 | 119.14868 | 32018 ft | 404 kts | 266° |
| 2026-05-01 12:15 | 37.55009 | 119.07824 | 32023 ft | 404 kts | 266° |
| 2026-05-01 12:16 | 37.54492 | 119.00774 | 32023 ft | 404 kts | 266° |
| 2026-05-01 12:16 | 37.53969 | 118.93733 | 32027 ft | 404 kts | 266° |
| 2026-05-01 12:17 | 37.53441 | 118.86674 | 32027 ft | 404 kts | 265° |
| 2026-05-01 12:17 | 37.52905 | 118.79632 | 32032 ft | 404 kts | 265° |
| 2026-05-01 12:18 | 37.52195 | 118.72604 | 32032 ft | 405 kts | 263° |
| 2026-05-01 12:18 | 37.51276 | 118.65612 | 32032 ft | 405 kts | 262° |
| 2026-05-01 12:19 | 37.50342 | 118.58626 | 32031 ft | 405 kts | 262° |
| 2026-05-01 12:19 | 37.49452 | 118.51625 | 32027 ft | 405 kts | 262° |
| 2026-05-01 12:20 | 37.48579 | 118.44630 | 32026 ft | 405 kts | 262° |
| 2026-05-01 12:20 | 37.47705 | 118.37631 | 32027 ft | 405 kts | 262° |
| 2026-05-01 12:21 | 37.46821 | 118.30634 | 32025 ft | 405 kts | 262° |
| 2026-05-01 12:21 | 37.45914 | 118.23643 | 32023 ft | 405 kts | 262° |
| 2026-05-01 12:22 | 37.45024 | 118.16646 | 32017 ft | 405 kts | 262° |
| 2026-05-01 12:22 | 37.44160 | 118.09655 | 32020 ft | 405 kts | 262° |
| 2026-05-01 12:23 | 37.43293 | 118.02659 | 32017 ft | 405 kts | 262° |
| 2026-05-01 12:23 | 37.42414 | 117.95660 | 32015 ft | 405 kts | 262° |
| 2026-05-01 12:24 | 37.41525 | 117.88674 | 32015 ft | 405 kts | 262° |
| 2026-05-01 12:24 | 37.40629 | 117.81687 | 32013 ft | 404 kts | 262° |
| 2026-05-01 12:25 | 37.39281 | 117.71222 | 32013 ft | 404 kts | 262° |
| 2026-05-01 12:26 | 37.38381 | 117.64236 | 32015 ft | 404 kts | 262° |
| 2026-05-01 12:26 | 37.37026 | 117.53781 | 32012 ft | 404 kts | 262° |
| 2026-05-01 12:27 | 37.35636 | 117.43325 | 32012 ft | 404 kts | 259° |
| 2026-05-01 12:28 | 37.32487 | 117.33446 | 32005 ft | 407 kts | 249° |
| 2026-05-01 12:29 | 37.29010 | 117.23712 | 32008 ft | 407 kts | 249° |
| 2026-05-01 12:29 | 37.25516 | 117.13983 | 32008 ft | 407 kts | 249° |
| 2026-05-01 12:30 | 37.22000 | 117.04270 | 31999 ft | 407 kts | 249° |
| 2026-05-01 12:31 | 37.19669 | 116.97851 | 32001 ft | 407 kts | 248° |
| 2026-05-01 12:31 | 37.17315 | 116.91389 | 31999 ft | 407 kts | 248° |
| 2026-05-01 12:32 | 37.14961 | 116.84937 | 32000 ft | 407 kts | 248° |
| 2026-05-01 12:32 | 37.11505 | 116.75179 | 31998 ft | 406 kts | 250° |
| 2026-05-01 12:33 | 37.09324 | 116.68650 | 31993 ft | 406 kts | 250° |
| 2026-05-01 12:33 | 37.07133 | 116.62127 | 31994 ft | 406 kts | 249° |
| 2026-05-01 12:34 | 37.04920 | 116.55619 | 31996 ft | 406 kts | 249° |
| 2026-05-01 12:34 | 37.02701 | 116.49126 | 31994 ft | 406 kts | 249° |
| 2026-05-01 12:35 | 37.00474 | 116.42629 | 31996 ft | 406 kts | 249° |
| 2026-05-01 12:35 | 36.98245 | 116.36138 | 31992 ft | 406 kts | 249° |
| 2026-05-01 12:36 | 36.96007 | 116.29646 | 31992 ft | 406 kts | 249° |
| 2026-05-01 12:36 | 36.93764 | 116.23158 | 31990 ft | 406 kts | 249° |
| 2026-05-01 12:37 | 36.91524 | 116.16670 | 31994 ft | 406 kts | 249° |
| 2026-05-01 12:37 | 36.89290 | 116.10187 | 31991 ft | 407 kts | 249° |
| 2026-05-01 12:38 | 36.87050 | 116.03701 | 31990 ft | 407 kts | 249° |
| 2026-05-01 12:38 | 36.84795 | 115.97222 | 31987 ft | 407 kts | 249° |
| 2026-05-01 12:39 | 36.82527 | 115.90739 | 31986 ft | 407 kts | 249° |
| 2026-05-01 12:39 | 36.80263 | 115.84262 | 31986 ft | 408 kts | 249° |
| 2026-05-01 12:40 | 36.77994 | 115.77771 | 31985 ft | 408 kts | 249° |
| 2026-05-01 12:40 | 36.75720 | 115.71280 | 31984 ft | 408 kts | 248° |
| 2026-05-01 12:41 | 36.73444 | 115.64797 | 31986 ft | 409 kts | 248° |
| 2026-05-01 12:41 | 36.71153 | 115.58310 | 31986 ft | 409 kts | 248° |
| 2026-05-01 12:42 | 36.68860 | 115.51822 | 31984 ft | 409 kts | 248° |
| 2026-05-01 12:42 | 36.66567 | 115.45343 | 31989 ft | 409 kts | 248° |
| 2026-05-01 12:43 | 36.64264 | 115.38854 | 31986 ft | 409 kts | 248° |
| 2026-05-01 12:43 | 36.61957 | 115.32376 | 31987 ft | 410 kts | 248° |
| 2026-05-01 12:44 | 36.59648 | 115.25891 | 31990 ft | 410 kts | 248° |
| 2026-05-01 12:45 | 36.53697 | 115.13897 | 31986 ft | 420 kts | 223° |
| 2026-05-01 12:45 | 36.48556 | 115.10270 | 31983 ft | 430 kts | 211° |
| 2026-05-01 12:46 | 36.43132 | 115.07151 | 31979 ft | 430 kts | 211° |
| 2026-05-01 12:46 | 36.37691 | 115.04029 | 31983 ft | 433 kts | 207° |
| 2026-05-01 12:47 | 36.31741 | 115.02345 | 31984 ft | 448 kts | 191° |
| 2026-05-01 12:47 | 36.25525 | 115.01727 | 31987 ft | 448 kts | 191° |
| 2026-05-01 12:48 | 36.19303 | 115.01108 | 31988 ft | 449 kts | 191° |
| 2026-05-01 12:48 | 36.13080 | 115.00469 | 31991 ft | 449 kts | 192° |
| 2026-05-01 12:49 | 36.06848 | 114.99827 | 31997 ft | 450 kts | 192° |
| 2026-05-01 12:49 | 36.00609 | 114.99184 | 31998 ft | 450 kts | 192° |
| 2026-05-01 12:50 | 35.94355 | 114.98549 | 31999 ft | 451 kts | 192° |
| 2026-05-01 12:50 | 35.88106 | 114.97919 | 32001 ft | 451 kts | 192° |
| 2026-05-01 12:51 | 35.81839 | 114.97290 | 32001 ft | 452 kts | 192° |
| 2026-05-01 12:52 | 35.72414 | 114.96337 | 31996 ft | 454 kts | 191° |
| 2026-05-01 12:52 | 35.62944 | 114.95372 | 31999 ft | 456 kts | 191° |
| 2026-05-01 12:53 | 35.54515 | 114.94523 | 31996 ft | 457 kts | 191° |
| 2026-05-01 12:54 | 35.48167 | 114.93887 | 31997 ft | 458 kts | 191° |
| 2026-05-01 12:54 | 35.38614 | 114.92924 | 32009 ft | 459 kts | 191° |
| 2026-05-01 12:55 | 35.29050 | 114.91980 | 32012 ft | 460 kts | 191° |
| 2026-05-01 12:56 | 35.22667 | 114.91339 | 32011 ft | 460 kts | 191° |
| 2026-05-01 12:56 | 35.16284 | 114.90695 | 32017 ft | 460 kts | 191° |
| 2026-05-01 12:57 | 35.09898 | 114.90069 | 32019 ft | 460 kts | 191° |
| 2026-05-01 12:57 | 35.00326 | 114.89116 | 32024 ft | 460 kts | 191° |
| 2026-05-01 12:58 | 34.93950 | 114.88480 | 32025 ft | 460 kts | 191° |
| 2026-05-01 12:59 | 34.84380 | 114.87534 | 32022 ft | 460 kts | 191° |
| 2026-05-01 12:59 | 34.74827 | 114.86589 | 32014 ft | 459 kts | 191° |
| 2026-05-01 13:00 | 34.65283 | 114.85644 | 32012 ft | 459 kts | 191° |
| 2026-05-01 13:01 | 34.55745 | 114.84706 | 32022 ft | 458 kts | 191° |
| 2026-05-01 13:02 | 34.46217 | 114.83773 | 32017 ft | 458 kts | 191° |
| 2026-05-01 13:07 | 33.76652 | 114.77029 | 32010 ft | 454 kts | 191° |
| 2026-05-01 13:08 | 33.70359 | 114.76399 | 32005 ft | 454 kts | 191° |
| 2026-05-01 13:08 | 33.64069 | 114.75787 | 32002 ft | 454 kts | 191° |
| 2026-05-01 13:09 | 33.57777 | 114.75207 | 32000 ft | 453 kts | 191° |
| 2026-05-01 13:09 | 33.51489 | 114.74586 | 31996 ft | 453 kts | 191° |
| 2026-05-01 13:10 | 33.45210 | 114.73927 | 31996 ft | 453 kts | 191° |
| 2026-05-01 13:10 | 33.38929 | 114.73303 | 31995 ft | 453 kts | 191° |
| 2026-05-01 13:11 | 33.32645 | 114.72704 | 31992 ft | 453 kts | 190° |
| 2026-05-01 13:11 | 33.26364 | 114.72105 | 31987 ft | 453 kts | 190° |
| 2026-05-01 13:12 | 33.20087 | 114.71498 | 31986 ft | 453 kts | 190° |
| 2026-05-01 13:12 | 33.13805 | 114.70886 | 31987 ft | 453 kts | 190° |
| 2026-05-01 13:13 | 33.07521 | 114.70261 | 31982 ft | 453 kts | 190° |
| 2026-05-01 13:13 | 33.01239 | 114.69645 | 31984 ft | 453 kts | 190° |
| 2026-05-01 13:14 | 32.94950 | 114.69029 | 31981 ft | 453 kts | 190° |
| 2026-05-01 13:14 | 32.88660 | 114.68405 | 31984 ft | 454 kts | 190° |
| 2026-05-01 13:15 | 32.82371 | 114.67799 | 31984 ft | 454 kts | 189° |
| 2026-05-01 13:15 | 32.76071 | 114.67203 | 31987 ft | 454 kts | 189° |
| 2026-05-01 13:16 | 32.69766 | 114.66615 | 31987 ft | 454 kts | 189° |
| 2026-05-01 13:16 | 32.63467 | 114.66026 | 31985 ft | 454 kts | 189° |
| 2026-05-01 13:17 | 32.50870 | 114.64839 | 31977 ft | 454 kts | 190° |
| 2026-05-01 13:18 | 32.41427 | 114.63953 | 31977 ft | 454 kts | 190° |
| 2026-05-01 13:18 | 32.35126 | 114.63361 | 31978 ft | 454 kts | 190° |
| 2026-05-01 13:19 | 32.28831 | 114.62743 | 31975 ft | 454 kts | 190° |
| 2026-05-01 13:20 | 32.19385 | 114.61811 | 31991 ft | 454 kts | 191° |
| 2026-05-01 13:20 | 32.13081 | 114.61208 | 31980 ft | 455 kts | 190° |
| 2026-05-01 13:21 | 32.03626 | 114.60310 | 31983 ft | 454 kts | 191° |
| 2026-05-01 13:21 | 31.97322 | 114.59698 | 31973 ft | 454 kts | 191° |
| 2026-05-01 13:22 | 31.91030 | 114.59079 | 31974 ft | 454 kts | 191° |
| 2026-05-01 13:22 | 31.84724 | 114.58463 | 31971 ft | 455 kts | 191° |
| 2026-05-01 13:23 | 31.78416 | 114.57853 | 31970 ft | 455 kts | 191° |
| 2026-05-01 13:23 | 31.72110 | 114.57252 | 31968 ft | 455 kts | 190° |
| 2026-05-01 13:24 | 31.65794 | 114.56648 | 31971 ft | 455 kts | 190° |
| 2026-05-01 13:25 | 31.56311 | 114.55737 | 31972 ft | 456 kts | 190° |
| 2026-05-01 13:25 | 31.49983 | 114.55131 | 31971 ft | 456 kts | 190° |
| 2026-05-01 13:26 | 31.43655 | 114.54526 | 31965 ft | 457 kts | 190° |
| 2026-05-01 13:26 | 31.37313 | 114.53920 | 31968 ft | 457 kts | 190° |
| 2026-05-01 13:27 | 31.30971 | 114.53317 | 31965 ft | 457 kts | 190° |
| 2026-05-01 13:27 | 31.21759 | 114.51192 | 31967 ft | 443 kts | 209° |
| 2026-05-01 13:28 | 31.13428 | 114.46559 | 31963 ft | 443 kts | 210° |
| 2026-05-01 13:29 | 31.02292 | 114.40405 | 31968 ft | 443 kts | 210° |
| 2026-05-01 13:31 | 30.85531 | 114.31286 | 31976 ft | 443 kts | 208° |
| 2026-05-01 13:32 | 30.72479 | 114.24382 | 31979 ft | 441 kts | 210° |
| 2026-05-01 13:33 | 30.58845 | 114.16928 | 31984 ft | 441 kts | 210° |
| 2026-05-01 13:34 | 30.47713 | 114.10920 | 31971 ft | 441 kts | 210° |
| 2026-05-01 13:35 | 30.39378 | 114.06427 | 31964 ft | 441 kts | 210° |
| 2026-05-01 13:36 | 30.31036 | 114.01935 | 31958 ft | 440 kts | 210° |
| 2026-05-01 13:36 | 30.22706 | 113.97454 | 31953 ft | 440 kts | 209° |
| 2026-05-01 13:37 | 30.17147 | 113.94482 | 31954 ft | 440 kts | 209° |
| 2026-05-01 13:37 | 30.11590 | 113.91505 | 31955 ft | 440 kts | 209° |
| 2026-05-01 13:38 | 30.03257 | 113.87055 | 31953 ft | 440 kts | 209° |
| 2026-05-01 13:39 | 29.97698 | 113.84095 | 31953 ft | 440 kts | 209° |
| 2026-05-01 13:39 | 29.92133 | 113.81131 | 31956 ft | 441 kts | 209° |
| 2026-05-01 13:40 | 29.86379 | 113.78644 | 31955 ft | 448 kts | 197° |
| 2026-05-01 13:40 | 29.80091 | 113.77962 | 31519 ft | 458 kts | 188° |
| 2026-05-01 13:40 | 29.76905 | 113.77747 | 30802 ft | 459 kts | 188° |
| 2026-05-01 13:41 | 29.73673 | 113.77529 | 30110 ft | 459 kts | 188° |
| 2026-05-01 13:41 | 29.70483 | 113.77308 | 29327 ft | 460 kts | 188° |
| 2026-05-01 13:41 | 29.67326 | 113.77087 | 28551 ft | 460 kts | 188° |
| 2026-05-01 13:41 | 29.64129 | 113.76863 | 27783 ft | 461 kts | 188° |
| 2026-05-01 13:42 | 29.60921 | 113.76637 | 27034 ft | 463 kts | 188° |
| 2026-05-01 13:42 | 29.57701 | 113.76413 | 26308 ft | 464 kts | 188° |
| 2026-05-01 13:42 | 29.54473 | 113.76189 | 25601 ft | 466 kts | 188° |
| 2026-05-01 13:42 | 29.51228 | 113.75967 | 24908 ft | 468 kts | 188° |
| 2026-05-01 13:43 | 29.47968 | 113.75745 | 24229 ft | 470 kts | 187° |
| 2026-05-01 13:43 | 29.44703 | 113.75521 | 23564 ft | 471 kts | 187° |
| 2026-05-01 13:43 | 29.41398 | 113.75294 | 22794 ft | 468 kts | 187° |
| 2026-05-01 13:43 | 29.38207 | 113.75073 | 22039 ft | 464 kts | 187° |
| 2026-05-01 13:44 | 29.35000 | 113.74851 | 21370 ft | 459 kts | 187° |
| 2026-05-01 13:44 | 29.31788 | 113.74626 | 20756 ft | 454 kts | 188° |
| 2026-05-01 13:44 | 29.28692 | 113.74409 | 20170 ft | 450 kts | 187° |
| 2026-05-01 13:44 | 29.25576 | 113.74195 | 19715 ft | 447 kts | 187° |
| 2026-05-01 13:45 | 29.22432 | 113.74014 | 19545 ft | 447 kts | 186° |
| 2026-05-01 13:45 | 29.19361 | 113.73985 | 19571 ft | 448 kts | 184° |
| 2026-05-01 13:45 | 29.16265 | 113.74063 | 19097 ft | 443 kts | 182° |
| 2026-05-01 13:45 | 29.13160 | 113.74210 | 18403 ft | 439 kts | 181° |
| 2026-05-01 13:46 | 29.10106 | 113.74373 | 17786 ft | 438 kts | 181° |
| 2026-05-01 13:46 | 29.07110 | 113.74520 | 17159 ft | 435 kts | 182° |
| 2026-05-01 13:46 | 29.04064 | 113.74646 | 16527 ft | 430 kts | 182° |
| 2026-05-01 13:46 | 29.01083 | 113.74747 | 15918 ft | 426 kts | 182° |
| 2026-05-01 13:47 | 28.98168 | 113.74826 | 15325 ft | 422 kts | 182° |
| 2026-05-01 13:47 | 28.95213 | 113.74898 | 14731 ft | 418 kts | 182° |
| 2026-05-01 13:47 | 28.92315 | 113.74968 | 14155 ft | 414 kts | 182° |
| 2026-05-01 13:47 | 28.89484 | 113.75042 | 13601 ft | 410 kts | 182° |
| 2026-05-01 13:48 | 28.86648 | 113.75122 | 13012 ft | 406 kts | 181° |
| 2026-05-01 13:48 | 28.83803 | 113.75207 | 12394 ft | 402 kts | 181° |
| 2026-05-01 13:48 | 28.81025 | 113.75290 | 11793 ft | 397 kts | 181° |
| 2026-05-01 13:48 | 28.78273 | 113.75370 | 11182 ft | 393 kts | 181° |
| 2026-05-01 13:49 | 28.75550 | 113.75450 | 10570 ft | 389 kts | 181° |
| 2026-05-01 13:49 | 28.72863 | 113.75436 | 10008 ft | 383 kts | 186° |
| 2026-05-01 13:49 | 28.70269 | 113.75152 | 9825 ft | 364 kts | 194° |
| 2026-05-01 13:49 | 28.68000 | 113.74125 | 9677 ft | 342 kts | 215° |
| 2026-05-01 13:50 | 28.66346 | 113.72312 | 9560 ft | 323 kts | 237° |
| 2026-05-01 13:50 | 28.65327 | 113.70103 | 9433 ft | 309 kts | 245° |
| 2026-05-01 13:50 | 28.64453 | 113.67919 | 9291 ft | 296 kts | 245° |
| 2026-05-01 13:50 | 28.63626 | 113.65825 | 9171 ft | 285 kts | 245° |
| 2026-05-01 13:51 | 28.62832 | 113.63805 | 9026 ft | 274 kts | 245° |
| 2026-05-01 13:51 | 28.62069 | 113.61849 | 8778 ft | 269 kts | 245° |
| 2026-05-01 13:51 | 28.61317 | 113.59911 | 8458 ft | 266 kts | 245° |
| 2026-05-01 13:51 | 28.60576 | 113.57986 | 8113 ft | 265 kts | 245° |
| 2026-05-01 13:52 | 28.59837 | 113.56063 | 7756 ft | 264 kts | 246° |
| 2026-05-01 13:52 | 28.59108 | 113.54149 | 7402 ft | 263 kts | 245° |
| 2026-05-01 13:52 | 28.58384 | 113.52245 | 7115 ft | 261 kts | 245° |
| 2026-05-01 13:52 | 28.57676 | 113.50360 | 6913 ft | 258 kts | 245° |
| 2026-05-01 13:53 | 28.56973 | 113.48471 | 6884 ft | 261 kts | 245° |
| 2026-05-01 13:53 | 28.55576 | 113.44706 | 6885 ft | 262 kts | 245° |
| 2026-05-01 13:53 | 28.54870 | 113.42802 | 6884 ft | 261 kts | 245° |
| 2026-05-01 13:54 | 28.54166 | 113.40895 | 6862 ft | 260 kts | 245° |
| 2026-05-01 13:54 | 28.53473 | 113.39009 | 6554 ft | 258 kts | 245° |
| 2026-05-01 13:54 | 28.52786 | 113.37127 | 6208 ft | 257 kts | 245° |
| 2026-05-01 13:54 | 28.52112 | 113.35273 | 5855 ft | 256 kts | 245° |
| 2026-05-01 13:55 | 28.51433 | 113.33378 | 5526 ft | 255 kts | 245° |
| 2026-05-01 13:55 | 28.50771 | 113.31514 | 5208 ft | 254 kts | 245° |
| 2026-05-01 13:55 | 28.50121 | 113.29652 | 4886 ft | 253 kts | 245° |
| 2026-05-01 13:55 | 28.49495 | 113.27797 | 4650 ft | 247 kts | 245° |
| 2026-05-01 13:56 | 28.48821 | 113.26079 | 4521 ft | 234 kts | 232° |
| 2026-05-01 13:56 | 28.47695 | 113.24809 | 4397 ft | 220 kts | 210° |
| 2026-05-01 13:56 | 28.46363 | 113.24082 | 4256 ft | 210 kts | 204° |
| 2026-05-01 13:56 | 28.45063 | 113.23424 | 4171 ft | 199 kts | 204° |
| 2026-05-01 13:57 | 28.43832 | 113.22796 | 4045 ft | 188 kts | 204° |
| 2026-05-01 13:57 | 28.43041 | 113.22391 | 3955 ft | 180 kts | 204° |
| 2026-05-01 13:57 | 28.41587 | 113.21646 | 3656 ft | 169 kts | 202° |
| 2026-05-01 13:57 | 28.40504 | 113.21136 | 3268 ft | 169 kts | 193° |
| 2026-05-01 13:58 | 28.39341 | 113.21102 | 2928 ft | 167 kts | 177° |
| 2026-05-01 13:58 | 28.38170 | 113.21177 | 2897 ft | 170 kts | 177° |
| 2026-05-01 13:58 | 28.36984 | 113.21252 | 2897 ft | 171 kts | 177° |
| 2026-05-01 13:58 | 28.35794 | 113.21326 | 2899 ft | 171 kts | 177° |
| 2026-05-01 13:59 | 28.34598 | 113.21400 | 2790 ft | 172 kts | 177° |
| 2026-05-01 13:59 | 28.33409 | 113.21473 | 2602 ft | 171 kts | 176° |
| 2026-05-01 13:59 | 28.32268 | 113.21543 | 2393 ft | 157 kts | 176° |
| 2026-05-01 13:59 | 28.31200 | 113.21609 | 2205 ft | 151 kts | 176° |
| 2026-05-01 14:00 | 28.30162 | 113.21672 | 2014 ft | 148 kts | 175° |
| 2026-05-01 14:00 | 28.29139 | 113.21735 | 1837 ft | 145 kts | 175° |
| 2026-05-01 14:00 | 28.28136 | 113.21797 | 1632 ft | 144 kts | 175° |
| 2026-05-01 14:00 | 28.27147 | 113.21858 | 1436 ft | 142 kts | 175° |
| 2026-05-01 14:01 | 28.26157 | 113.21919 | 1252 ft | 141 kts | 174° |
| 2026-05-01 14:01 | 28.25173 | 113.21979 | 1069 ft | 143 kts | 175° |
| 2026-05-01 14:01 | 28.24174 | 113.22041 | 894 ft | 145 kts | 175° |
| 2026-05-01 14:01 | 28.23169 | 113.22103 | 722 ft | 145 kts | 175° |
| 2026-05-01 14:02 | 28.22155 | 113.22166 | 517 ft | 146 kts | 176° |
| 2026-05-01 14:02 | 28.21143 | 113.22227 | 312 ft | 145 kts | 176° |
| 2026-05-01 14:02 | 28.20153 | 113.22282 | 225 ft | 133 kts | 176° |
| 2026-05-01 14:02 | 28.19366 | 113.22339 | 217 ft | 87 kts | 178° |
| 2026-05-01 14:03 | 28.18933 | 113.22363 | 216 ft | 40 kts | 182° |
| 2026-05-01 14:03 | 28.18721 | 113.22263 | 218 ft | 28 kts | 205° |
| 2026-05-01 14:03 | 28.18568 | 113.22197 | 215 ft | 21 kts | 186° |
| 2026-05-01 14:03 | 28.18468 | 113.22200 | 219 ft | 8 kts | 176° |
| 2026-05-01 14:04 | 28.18402 | 113.22204 | 217 ft | 15 kts | 176° |
| 2026-05-01 14:04 | 28.18268 | 113.22214 | 215 ft | 21 kts | 175° |
| 2026-05-01 14:04 | 28.18129 | 113.22223 | 217 ft | 19 kts | 181° |
| 2026-05-01 14:04 | 28.18068 | 113.22189 | 214 ft | 15 kts | 250° |
| 2026-05-01 14:05 | 28.18072 | 113.22034 | 221 ft | 15 kts | 287° |
| 2026-05-01 14:05 | 28.18092 | 113.21916 | 215 ft | 16 kts | 270° |
| 2026-05-01 14:05 | 28.18146 | 113.21837 | 217 ft | 14 kts | 352° |
| 2026-05-01 14:05 | 28.18242 | 113.21831 | 217 ft | 15 kts | 357° |
| 2026-05-01 14:06 | 28.18349 | 113.21824 | 214 ft | 16 kts | 356° |
| 2026-05-01 14:06 | 28.18466 | 113.21817 | 218 ft | 17 kts | 357° |
| 2026-05-01 14:06 | 28.18590 | 113.21810 | 214 ft | 18 kts | 358° |
| 2026-05-01 14:06 | 28.18713 | 113.21802 | 214 ft | 17 kts | 356° |
| 2026-05-01 14:07 | 28.18826 | 113.21791 | 215 ft | 16 kts | 343° |
| 2026-05-01 14:07 | 28.18883 | 113.21727 | 214 ft | 12 kts | 276° |
| 2026-05-01 14:07 | 28.18823 | 113.21683 | 216 ft | 12 kts | 178° |
| 2026-05-01 14:08 | 28.18605 | 113.21687 | 213 ft | 15 kts | 206° |
| 2026-05-01 14:08 | 28.18578 | 113.21587 | 213 ft | 10 kts | 268° |
| 2026-05-01 14:08 | 28.18619 | 113.21551 | 216 ft | 9 kts | 356° |
| 2026-05-01 14:08 | 28.18647 | 113.21550 | 216 ft | 2 kts | 357° |
| 2026-05-01 14:09 | 28.18654 | 113.21550 | 216 ft | 1 kts | 357° |
| 2026-05-01 14:09 | 28.18660 | 113.21549 | 213 ft | 1 kts | 357° |